Time;durP1;ratioP1;P1;durP2;ratioP2;P2;SDS_P1;SDS_P2;PMS_P1;PMS_P2;Temp;Humidity;BMP_temperature;BMP_pressure;BME280_temperature;BME280_humidity;BME280_pressure;Samples;Min_cycle;Max_cycle;Signal;HPM_P1;HPM_P2
2022/06/03 00:02:24;;;;;;;11.80;10.10;;;;;;;14.64;86.04;97684.10;109562;1254;68520;-68
2022/06/03 00:05:31;;;;;;;11.00;8.40;;;;;;;14.68;85.65;97682.55;109557;1253;69468;-67
2022/06/03 00:08:18;;;;;;;13.00;8.70;;;;;;;14.68;84.48;97680.10;109555;1254;59824;-68
2022/06/03 00:11:07;;;;;;;10.70;9.10;;;;;;;14.66;84.15;97675.86;109600;1253;59770;-72
2022/06/03 00:13:55;;;;;;;10.20;8.60;;;;;;;14.63;84.63;97675.95;109604;1253;71260;-68
2022/06/03 00:16:31;;;;;;;9.40;8.40;;;;;;;14.56;84.49;97675.55;109578;1252;68600;-68
2022/06/03 00:19:11;;;;;;;;;;;;;;;14.44;84.58;97679.60;109585;1254;68446;-66
2022/06/03 00:21:54;;;;;;;10.50;8.90;;;;;;;14.34;84.85;97677.68;109590;1252;59727;-68
2022/06/03 00:24:44;;;;;;;10.80;9.30;;;;;;;14.27;85.09;97678.98;110115;1252;59760;-68
2022/06/03 00:27:30;;;;;;;9.60;8.30;;;;;;;14.21;85.68;97676.43;109603;1253;70615;-69
2022/06/03 00:30:15;;;;;;;11.90;10.20;;;;;;;14.18;88.69;97675.63;109512;1254;68414;-69
2022/06/03 00:33:07;;;;;;;16.40;10.70;;;;;;;14.17;88.48;97674.52;109584;1253;69428;-70
2022/06/03 00:36:03;;;;;;;10.40;8.10;;;;;;;14.16;88.00;97669.67;109586;1252;59734;-67
2022/06/03 00:38:49;;;;;;;9.80;8.20;;;;;;;14.18;86.01;97671.11;109524;1251;59737;-69
2022/06/03 00:41:37;;;;;;;9.00;7.00;;;;;;;14.19;85.44;97673.50;109574;1251;70822;-70
2022/06/03 00:44:27;;;;;;;10.90;9.20;;;;;;;14.18;87.33;97677.82;109612;1251;67421;-68
2022/06/03 00:47:32;;;;;;;10.90;8.90;;;;;;;14.10;87.82;97680.36;109603;1251;69445;-64
2022/06/03 00:50:36;;;;;;;9.30;7.10;;;;;;;14.05;88.43;97674.70;109599;1251;59755;-68
2022/06/03 00:53:25;;;;;;;10.10;7.70;;;;;;;14.04;87.85;97678.60;109598;1250;59746;-64
2022/06/03 00:56:22;;;;;;;8.70;7.00;;;;;;;14.03;87.38;97685.89;109603;1251;70978;-67
2022/06/03 00:59:21;;;;;;;11.50;9.30;;;;;;;14.00;87.07;97689.77;109623;1251;68612;-67
2022/06/03 01:02:04;;;;;;;11.50;9.60;;;;;;;13.97;87.12;97683.58;109620;1251;69427;-69
2022/06/03 01:04:56;;;;;;;11.00;9.00;;;;;;;13.94;88.94;97678.88;109591;1251;59672;-70
2022/06/03 01:07:40;;;;;;;10.00;7.80;;;;;;;13.89;87.21;97677.23;109631;1251;59787;-69
2022/06/03 01:10:32;;;;;;;10.80;8.70;;;;;;;13.83;86.38;97674.39;109587;1250;71517;-68
2022/06/03 01:13:22;;;;;;;7.80;6.80;;;;;;;13.77;86.61;97678.52;109683;1251;67781;-72
2022/06/03 01:16:06;;;;;;;9.90;8.10;;;;;;;13.75;89.65;97685.66;109994;1251;69211;-70
2022/06/03 01:19:08;;;;;;;12.90;8.40;;;;;;;13.74;90.30;97690.63;109927;1251;60178;-68
2022/06/03 01:22:33;;;;;;;10.70;8.10;;;;;;;13.73;90.38;97688.67;109629;1251;59716;-68
2022/06/03 01:25:51;;;;;;;11.10;8.60;;;;;;;13.73;88.18;97688.31;108824;1257;71459;-68
2022/06/03 01:28:33;;;;;;;11.30;9.30;;;;;;;13.74;89.24;97691.52;109169;1251;67840;-67
2022/06/03 01:31:22;;;;;;;14.80;10.70;;;;;;;13.75;89.52;97691.83;109574;1251;69433;-65
2022/06/03 01:33:52;;;;;;;11.40;9.10;;;;;;;13.76;88.72;97699.10;109560;1251;59705;-67
2022/06/03 01:36:44;;;;;;;11.90;9.50;;;;;;;13.78;88.75;97699.13;109597;1248;59688;-66
2022/06/03 01:39:43;;;;;;;11.20;7.90;;;;;;;13.81;89.22;97706.59;109544;1253;71542;-68
2022/06/03 01:42:29;;;;;;;9.40;7.70;;;;;;;13.84;89.12;97711.79;109621;1250;68550;-69
2022/06/03 01:45:08;;;;;;;9.80;7.10;;;;;;;13.86;88.56;97713.38;109569;1251;69413;-67
2022/06/03 01:47:56;;;;;;;9.70;6.90;;;;;;;13.86;86.78;97707.41;109585;1251;59690;-66
2022/06/03 01:50:45;;;;;;;8.90;7.00;;;;;;;13.84;85.66;97708.09;109603;1251;59681;-67
2022/06/03 01:53:40;;;;;;;10.10;8.00;;;;;;;13.81;86.56;97711.82;109573;1251;70908;-64
2022/06/03 01:56:26;;;;;;;10.10;8.60;;;;;;;13.77;88.79;97711.09;109610;1251;68562;-70
2022/06/03 01:59:22;;;;;;;11.50;8.90;;;;;;;13.74;89.75;97712.39;109590;1253;68647;-68
2022/06/03 02:02:29;;;;;;;8.80;7.70;;;;;;;13.71;89.38;97709.61;109562;1251;59779;-68
2022/06/03 02:05:12;;;;;;;8.40;7.50;;;;;;;13.70;86.97;97709.54;110100;1251;59703;-67
2022/06/03 02:07:53;;;;;;;10.50;8.50;;;;;;;13.70;89.22;97714.10;109741;1251;71345;-69
2022/06/03 02:11:01;;;;;;;10.60;9.10;;;;;;;13.70;90.28;97717.99;109632;1251;68587;-67
2022/06/03 02:13:56;;;;;;;9.10;7.80;;;;;;;13.67;90.23;97725.02;109537;1251;69239;-66
2022/06/03 02:16:59;;;;;;;11.20;8.60;;;;;;;13.64;89.00;97723.71;109602;1251;59683;-70
2022/06/03 02:19:39;;;;;;;8.80;7.40;;;;;;;13.61;89.15;97725.52;109610;1251;59767;-69
2022/06/03 02:22:31;;;;;;;9.50;8.50;;;;;;;13.59;89.72;97727.46;109602;1251;70645;-66
2022/06/03 02:25:28;;;;;;;10.90;8.70;;;;;;;13.55;90.75;97735.64;109623;1251;67835;-67
2022/06/03 02:28:25;;;;;;;9.50;7.80;;;;;;;13.51;89.86;97748.38;109566;1251;68752;-67
2022/06/03 02:31:14;;;;;;;10.30;7.40;;;;;;;13.46;88.77;97758.57;109594;1251;59730;-68
2022/06/03 02:34:04;;;;;;;8.60;6.90;;;;;;;13.43;88.01;97761.61;109602;1251;59699;-68
2022/06/03 02:37:25;;;;;;;10.20;9.20;;;;;;;13.39;90.10;97757.73;109587;1251;69880;-68
2022/06/03 02:40:00;;;;;;;16.40;11.40;;;;;;;13.36;89.83;97758.84;109521;1250;67839;-65
2022/06/03 02:42:33;;;;;;;11.40;9.40;;;;;;;13.37;88.80;97758.31;109831;1250;68985;-67
2022/06/03 02:45:44;;;;;;;12.10;9.70;;;;;;;13.38;88.04;97756.23;109656;1251;59768;-69
2022/06/03 02:48:22;;;;;;;11.90;7.50;;;;;;;13.42;88.14;97759.11;109314;1251;59944;-68
2022/06/03 02:51:10;;;;;;;11.20;9.40;;;;;;;13.45;89.79;97765.15;109828;1250;71449;-69
2022/06/03 02:54:08;;;;;;;10.00;7.80;;;;;;;13.47;91.25;97763.38;109881;1250;68609;-69
2022/06/03 02:56:47;;;;;;;10.10;8.70;;;;;;;13.49;88.11;97763.55;110050;1251;69425;-67
2022/06/03 02:59:31;;;;;;;8.70;7.00;;;;;;;13.49;87.14;97770.23;109813;1250;59774;-71
2022/06/03 03:02:30;;;;;;;8.80;7.80;;;;;;;13.48;86.36;97767.31;109209;1253;59743;-69
2022/06/03 03:05:49;;;;;;;10.60;8.20;;;;;;;13.48;86.09;97769.44;109700;1250;70785;-69
2022/06/03 03:08:57;;;;;;;11.20;9.50;;;;;;;13.49;89.72;97773.39;108985;1260;68563;-65
2022/06/03 03:12:03;;;;;;;12.30;9.30;;;;;;;13.52;91.03;97772.69;108471;1260;68646;-68
2022/06/03 03:14:42;;;;;;;9.70;7.60;;;;;;;13.57;91.15;97782.06;108804;1260;59795;-69
2022/06/03 03:17:24;;;;;;;11.70;9.00;;;;;;;13.64;91.03;97786.90;108999;1260;59738;-67
2022/06/03 03:20:29;;;;;;;9.90;7.90;;;;;;;13.71;91.05;97785.79;108732;1261;70810;-69
2022/06/03 03:23:27;;;;;;;11.00;9.10;;;;;;;13.81;90.59;97786.11;108880;1258;68751;-70
2022/06/03 03:26:15;;;;;;;8.80;7.70;;;;;;;13.90;90.14;97786.59;108688;1261;69293;-66
2022/06/03 03:29:08;;;;;;;9.20;7.70;;;;;;;13.98;87.88;97784.73;108460;1263;59809;-65
2022/06/03 03:32:14;;;;;;;7.60;6.20;;;;;;;14.04;87.36;97783.88;108918;1260;59743;-65
2022/06/03 03:34:46;;;;;;;10.60;7.80;;;;;;;14.09;86.28;97786.61;108600;1261;70658;-66
2022/06/03 03:37:50;;;;;;;10.20;7.50;;;;;;;14.13;86.88;97785.12;108857;1259;68609;-69
2022/06/03 03:40:28;;;;;;;10.40;8.50;;;;;;;14.17;87.96;97782.77;108601;1260;68584;-68
2022/06/03 03:43:16;;;;;;;8.30;7.40;;;;;;;14.22;86.72;97782.08;109000;1260;59806;-64
2022/06/03 03:46:25;;;;;;;11.00;9.30;;;;;;;14.25;85.57;97781.28;109566;1253;59720;-66
2022/06/03 03:49:31;;;;;;;9.00;8.00;;;;;;;14.30;86.66;97778.69;109781;1253;71212;-66
2022/06/03 03:52:13;;;;;;;10.90;8.50;;;;;;;14.34;88.23;97775.52;109682;1252;68429;-67
2022/06/03 03:55:04;;;;;;;10.00;8.70;;;;;;;14.40;88.33;97776.61;109551;1252;68643;-64
2022/06/03 03:57:52;;;;;;;11.80;9.30;;;;;;;14.46;88.59;97776.94;109481;1253;59767;-67
2022/06/03 04:00:31;;;;;;;10.00;8.60;;;;;;;14.54;88.48;97778.21;109579;1252;59761;-68
2022/06/03 04:03:41;;;;;;;9.30;8.20;;;;;;;14.64;88.46;97782.30;109535;1251;71571;-68
2022/06/03 04:06:29;;;;;;;12.70;8.90;;;;;;;14.76;88.14;97787.12;109532;1252;69160;-68
2022/06/03 04:09:28;;;;;;;10.70;8.90;;;;;;;14.85;87.52;97787.08;109383;1254;67907;-67
2022/06/03 04:12:28;;;;;;;9.60;7.80;;;;;;;14.96;87.53;97784.75;109517;1252;59772;-69
2022/06/03 04:15:35;;;;;;;9.60;7.70;;;;;;;15.11;87.00;97785.05;109577;1253;59757;-67
2022/06/03 04:18:17;;;;;;;9.10;7.60;;;;;;;15.28;86.87;97785.52;109531;1252;71628;-68
2022/06/03 04:21:09;;;;;;;10.10;9.00;;;;;;;15.43;86.78;97787.71;109621;1253;69832;-69
2022/06/03 04:24:02;;;;;;;9.40;8.40;;;;;;;15.59;86.29;97793.86;109294;1252;69175;-67
2022/06/03 04:26:46;;;;;;;11.70;9.90;;;;;;;15.75;85.50;97795.84;109531;1252;59779;-64
2022/06/03 04:29:41;;;;;;;12.20;9.40;;;;;;;15.87;85.38;97797.63;109591;1253;59767;-68
2022/06/03 04:32:35;;;;;;;12.20;9.10;;;;;;;16.00;84.30;97798.02;109555;1251;70841;-67
2022/06/03 04:35:23;;;;;;;9.50;8.50;;;;;;;16.17;83.89;97800.79;109926;1252;68613;-66
2022/06/03 04:38:11;;;;;;;9.20;7.70;;;;;;;16.32;82.72;97798.48;109735;1250;69387;-67
2022/06/03 04:40:47;;;;;;;10.20;8.80;;;;;;;16.50;82.08;97798.48;109718;1250;59682;-64
2022/06/03 04:43:52;;;;;;;9.00;8.10;;;;;;;16.66;82.00;97797.91;109628;1250;59764;-66
2022/06/03 04:46:38;;;;;;;11.70;8.30;;;;;;;16.85;81.15;97790.89;109751;1250;71464;-68
2022/06/03 04:49:24;;;;;;;11.20;9.00;;;;;;;17.00;79.87;97792.51;109733;1248;67782;-67
2022/06/03 04:52:14;;;;;;;13.70;9.00;;;;;;;17.16;79.94;97798.05;109611;1251;69608;-68
2022/06/03 04:55:28;;;;;;;12.00;9.50;;;;;;;17.30;79.33;97799.16;109800;1250;59681;-66
2022/06/03 04:58:32;;;;;;;11.40;8.70;;;;;;;17.44;79.14;97810.42;109791;1250;60097;-65
2022/06/03 05:01:38;;;;;;;8.00;7.10;;;;;;;17.59;78.73;97809.13;109758;1250;71576;-69
2022/06/03 05:04:39;;;;;;;11.70;8.50;;;;;;;17.83;78.59;97813.41;109778;1250;68615;-69
2022/06/03 05:07:36;;;;;;;10.70;8.20;;;;;;;18.12;76.25;97817.42;109722;1250;69376;-70
2022/06/03 05:10:43;;;;;;;8.50;6.40;;;;;;;18.50;77.13;97817.96;109708;1250;59651;-70
2022/06/03 05:13:43;;;;;;;9.90;7.10;;;;;;;19.06;74.46;97815.27;109631;1250;59716;-68
2022/06/03 05:16:30;;;;;;;6.20;5.60;;;;;;;19.45;70.92;97816.01;109768;1250;71922;-70
2022/06/03 05:19:00;;;;;;;7.20;6.10;;;;;;;19.83;67.88;97821.34;109507;1253;68650;-69
2022/06/03 05:22:03;;;;;;;6.10;5.00;;;;;;;20.12;67.69;97825.88;109758;1250;68670;-70
2022/06/03 05:24:44;;;;;;;7.30;5.80;;;;;;;20.45;64.94;97832.66;110071;1250;59692;-71
2022/06/03 05:27:35;;;;;;;7.80;6.20;;;;;;;20.53;64.05;97834.13;109693;1250;59673;-72
2022/06/03 05:30:35;;;;;;;9.00;6.30;;;;;;;20.64;64.34;97840.38;109808;1250;71652;-68
2022/06/03 05:33:38;;;;;;;8.40;5.90;;;;;;;20.50;63.74;97843.43;109686;1251;67820;-67
2022/06/03 05:36:28;;;;;;;7.10;6.00;;;;;;;20.62;63.82;97842.84;109586;1250;68593;-69
2022/06/03 05:39:34;;;;;;;6.60;5.90;;;;;;;20.78;65.43;97844.14;109976;1250;59737;-70
2022/06/03 05:42:28;;;;;;;8.40;7.20;;;;;;;20.84;63.87;97844.23;109967;1250;59733;-68
2022/06/03 05:45:43;;;;;;;9.30;8.30;;;;;;;20.81;64.19;97848.92;109770;1250;70703;-65
2022/06/03 05:48:23;;;;;;;9.70;8.00;;;;;;;20.84;63.38;97848.49;109570;1251;66698;-69
2022/06/03 05:51:05;;;;;;;9.20;7.50;;;;;;;20.62;63.04;97848.21;109789;1250;68669;-66
2022/06/03 05:53:44;;;;;;;7.40;6.50;;;;;;;20.61;63.91;97850.80;109848;1250;59762;-67
2022/06/03 05:56:34;;;;;;;10.30;7.10;;;;;;;20.56;63.56;97849.70;109599;1250;59683;-69
2022/06/03 06:00:11;;;;;;;9.40;7.30;;;;;;;20.63;63.73;97851.72;109756;1250;72099;-68
2022/06/03 06:03:09;;;;;;;7.30;6.40;;;;;;;20.64;63.97;97855.77;108551;1263;68742;-67
2022/06/03 06:06:07;;;;;;;7.40;6.50;;;;;;;20.84;63.81;97861.09;109108;1258;69473;-66
2022/06/03 06:09:04;;;;;;;8.50;7.60;;;;;;;21.00;63.66;97872.90;109137;1257;59755;-66
2022/06/03 06:12:09;;;;;;;9.50;7.30;;;;;;;21.19;63.43;97872.86;109437;1258;59746;-66
2022/06/03 06:14:41;;;;;;;7.90;6.70;;;;;;;21.37;62.90;97871.46;109155;1257;71657;-68
2022/06/03 06:17:49;;;;;;;7.80;7.00;;;;;;;21.38;62.19;97872.38;109138;1257;68765;-66
2022/06/03 06:20:18;;;;;;;7.40;6.20;;;;;;;21.42;62.30;97878.52;109124;1257;69481;-68
2022/06/03 06:22:50;;;;;;;6.80;5.60;;;;;;;21.79;62.08;97876.67;109075;1257;59873;-69
2022/06/03 06:25:41;;;;;;;8.70;6.10;;;;;;;22.35;61.50;97874.48;109127;1257;59723;-66
2022/06/03 06:28:43;;;;;;;7.60;6.20;;;;;;;22.87;58.98;97873.26;108541;1257;769320;-67
2022/06/03 06:31:47;;;;;;;8.30;7.50;;;;;;;23.01;57.81;97874.20;109078;1257;68462;-68
2022/06/03 06:34:40;;;;;;;9.70;8.20;;;;;;;23.16;57.75;97876.48;109131;1256;69157;-67
2022/06/03 06:37:43;;;;;;;10.00;8.20;;;;;;;23.15;58.02;97873.49;109169;1253;59731;-66
2022/06/03 06:40:54;;;;;;;7.90;7.10;;;;;;;23.36;57.74;97872.73;109707;1250;59779;-67
2022/06/03 06:43:40;;;;;;;10.90;8.90;;;;;;;23.72;57.63;97867.61;109783;1250;71092;-68
2022/06/03 06:46:49;;;;;;;7.60;6.80;;;;;;;24.22;56.63;97861.75;109774;1250;67671;-67
2022/06/03 06:49:57;;;;;;;8.40;7.00;;;;;;;24.53;55.43;97867.21;109777;1250;69088;-67
2022/06/03 06:52:40;;;;;;;10.70;9.60;;;;;;;24.97;53.92;97872.95;109707;1250;59694;-68
2022/06/03 06:55:15;;;;;;;10.30;9.10;;;;;;;25.03;53.36;97872.25;109752;1250;59733;-68
2022/06/03 06:57:54;;;;;;;10.70;8.60;;;;;;;25.30;53.83;97874.73;110327;1250;70803;-73
2022/06/03 07:00:36;;;;;;;12.30;10.50;;;;;;;25.39;53.46;97877.01;110014;1250;67585;-68
2022/06/03 07:03:11;;;;;;;9.70;6.30;;;;;;;25.03;54.35;97876.85;109864;1250;69545;-68
2022/06/03 07:06:06;;;;;;;10.80;7.60;;;;;;;25.11;53.77;97871.86;109954;1250;59699;-67
2022/06/03 07:08:44;;;;;;;10.30;8.80;;;;;;;25.10;54.15;97865.69;109714;1250;59699;-68
2022/06/03 07:11:24;;;;;;;10.10;7.80;;;;;;;25.24;53.30;97870.29;109681;1250;70982;-70
2022/06/03 07:13:59;;;;;;;9.40;8.10;;;;;;;25.54;52.47;97867.77;109935;1249;69287;-70
2022/06/03 07:20:06;;;;;;;9.50;7.20;;;;;;;25.86;50.79;97870.95;109804;1249;59628;-69
2022/06/03 07:22:43;;;;;;;8.20;6.90;;;;;;;26.18;50.48;97873.84;109652;1250;59692;-68
2022/06/03 07:25:17;;;;;;;7.90;7.10;;;;;;;26.37;49.82;97874.98;109806;1250;70572;-69
2022/06/03 07:27:57;;;;;;;7.10;6.40;;;;;;;26.36;49.41;97873.54;109827;1250;69019;-70
2022/06/03 07:30:37;;;;;;;6.40;5.80;;;;;;;26.64;48.99;97869.86;109912;1250;69777;-70
2022/06/03 07:33:41;;;;;;;6.00;5.20;;;;;;;27.04;48.02;97868.13;109939;1250;59620;-67
2022/06/03 07:36:26;;;;;;;5.40;4.90;;;;;;;27.35;47.51;97868.98;109575;1250;59773;-69
2022/06/03 07:39:02;;;;;;;6.00;4.90;;;;;;;27.67;46.34;97866.92;109949;1248;71163;-70
2022/06/03 07:41:43;;;;;;;7.10;4.90;;;;;;;27.77;45.63;97864.07;109700;1251;68671;-69
2022/06/03 07:44:13;;;;;;;6.30;5.00;;;;;;;28.00;45.74;97869.43;109681;1251;68491;-67
2022/06/03 07:46:52;;;;;;;7.30;5.80;;;;;;;27.39;45.65;97868.95;110489;1250;58907;-68
2022/06/03 07:49:24;;;;;;;5.10;4.60;;;;;;;27.03;46.81;97871.67;109854;1250;59770;-70
2022/06/03 07:52:10;;;;;;;6.80;5.70;;;;;;;27.16;46.66;97869.46;109761;1251;71529;-69
2022/06/03 07:54:51;;;;;;;6.10;4.60;;;;;;;27.36;46.88;97875.50;109979;1250;68197;-65
2022/06/03 07:57:24;;;;;;;5.90;4.90;;;;;;;27.82;45.08;97876.12;109838;1250;69557;-67
2022/06/03 07:59:59;;;;;;;6.60;5.40;;;;;;;28.12;44.20;97877.65;109931;1250;59744;-68
2022/06/03 08:02:31;;;;;;;5.40;4.60;;;;;;;27.95;44.05;97878.73;109707;1251;59766;-68
2022/06/03 08:05:16;;;;;;;5.60;4.80;;;;;;;27.48;44.82;97881.27;109697;1251;70859;-67
2022/06/03 08:10:57;;;;;;;5.70;5.00;;;;;;;27.52;44.60;97880.03;109912;1250;68705;-66
2022/06/03 08:13:39;;;;;;;7.10;5.10;;;;;;;28.10;44.48;97876.34;109709;1250;60260;-70
2022/06/03 08:16:25;;;;;;;5.00;4.50;;;;;;;28.26;43.86;97870.48;109866;1250;59746;-70
2022/06/03 08:18:59;;;;;;;6.10;5.10;;;;;;;28.41;43.95;97868.95;109682;1250;71572;-69
2022/06/03 08:21:42;;;;;;;5.90;4.50;;;;;;;28.53;44.10;97869.45;109887;1250;67964;-70
2022/06/03 08:24:15;;;;;;;7.00;5.30;;;;;;;28.82;43.44;97874.91;109872;1250;68666;-69
2022/06/03 08:26:50;;;;;;;6.50;5.40;;;;;;;29.08;42.95;97871.98;109948;1250;59698;-71
2022/06/03 08:29:46;;;;;;;4.40;3.90;;;;;;;29.41;41.87;97865.34;109658;1251;59966;-70
2022/06/03 08:32:32;;;;;;;4.80;4.20;;;;;;;29.22;40.96;97868.48;109955;1250;71152;-70
2022/06/03 08:35:09;;;;;;;4.60;3.90;;;;;;;29.40;41.72;97869.48;110194;1250;69122;-68
2022/06/03 08:37:50;;;;;;;4.60;4.20;;;;;;;29.82;40.75;97865.85;109851;1250;69169;-70
2022/06/03 08:40:23;;;;;;;5.20;4.60;;;;;;;30.07;40.39;97867.51;109742;1250;59723;-70
2022/06/03 08:42:57;;;;;;;5.20;4.50;;;;;;;30.15;39.96;97870.51;109887;1250;59758;-68
2022/06/03 08:45:26;;;;;;;6.70;5.00;;;;;;;29.96;39.79;97870.70;109562;1253;71530;-68
2022/06/03 08:47:59;;;;;;;6.00;5.00;;;;;;;29.37;40.85;97872.20;109813;1250;68027;-70
2022/06/03 08:51:10;;;;;;;4.10;3.60;;;;;;;29.23;41.32;97874.42;109772;1250;69529;-71
2022/06/03 08:54:09;;;;;;;6.30;4.60;;;;;;;29.34;40.99;97876.47;109809;1250;59701;-71
2022/06/03 08:56:44;;;;;;;6.20;5.10;;;;;;;29.86;40.83;97875.11;109442;1254;59650;-71
2022/06/03 08:59:31;;;;;;;5.30;4.50;;;;;;;29.81;39.64;97874.77;109228;1255;71122;-72
2022/06/03 09:02:06;;;;;;;7.20;4.80;;;;;;;30.30;38.90;97877.59;109497;1255;68662;-69
2022/06/03 09:05:08;;;;;;;5.90;4.70;;;;;;;30.58;38.57;97877.55;109325;1256;69397;-69
2022/06/03 09:07:48;;;;;;;5.40;4.60;;;;;;;30.46;38.69;97875.48;109436;1256;59634;-69
2022/06/03 09:10:27;;;;;;;6.10;4.70;;;;;;;30.30;38.72;97870.07;109476;1256;59774;-69
2022/06/03 09:13:04;;;;;;;4.90;3.90;;;;;;;30.38;38.10;97874.14;109321;1256;72132;-69
2022/06/03 09:15:38;;;;;;;6.80;4.70;;;;;;;30.13;39.29;97878.98;109380;1256;69496;-70
2022/06/03 09:18:16;;;;;;;5.10;4.20;;;;;;;30.33;38.65;97877.42;109399;1256;69444;-70
2022/06/03 09:21:06;;;;;;;6.10;4.10;;;;;;;30.46;38.90;97875.61;109596;1256;59802;-71
2022/06/03 09:23:59;;;;;;;4.30;3.60;;;;;;;30.90;38.40;97875.77;109645;1256;59854;-68
2022/06/03 09:26:33;;;;;;;4.70;4.00;;;;;;;31.37;37.21;97873.89;109462;1256;71721;-70
2022/06/03 09:29:05;;;;;;;5.40;4.10;;;;;;;31.43;36.23;97870.80;109474;1256;69286;-70
2022/06/03 09:31:37;;;;;;;5.30;4.50;;;;;;;31.61;35.73;97875.01;109311;1256;69487;-70
2022/06/03 09:34:08;;;;;;;9.20;6.80;;;;;;;31.84;34.84;97872.20;109806;1250;59849;-69
2022/06/03 09:36:39;;;;;;;5.40;4.10;;;;;;;31.34;35.09;97871.79;109796;1250;59664;-71
2022/06/03 09:39:15;;;;;;;5.50;4.20;;;;;;;31.58;35.56;97877.45;109716;1250;70762;-70
2022/06/03 09:41:48;;;;;;;4.40;3.80;;;;;;;31.86;34.79;97875.86;109657;1251;67872;-71
2022/06/03 09:44:21;;;;;;;3.80;3.40;;;;;;;32.10;33.86;97874.61;109880;1250;68849;-69
2022/06/03 09:46:59;;;;;;;4.90;4.40;;;;;;;32.18;34.07;97877.35;109671;1251;59822;-69
2022/06/03 09:49:29;;;;;;;;;;;;;;;31.55;35.50;97881.52;109923;1250;59714;-69
2022/06/03 09:52:00;;;;;;;4.20;3.70;;;;;;;31.65;34.29;97879.23;109936;1250;71613;-68
2022/06/03 09:54:34;;;;;;;3.90;3.50;;;;;;;31.47;35.11;97876.84;110009;1250;68049;-69
2022/06/03 09:57:18;;;;;;;10.80;3.70;;;;;;;31.34;35.12;97876.95;109715;1250;69530;-66
2022/06/03 10:00:03;;;;;;;4.00;3.50;;;;;;;31.29;36.25;97875.87;109887;1250;59701;-69
2022/06/03 10:02:41;;;;;;;7.10;5.20;;;;;;;31.55;35.98;97878.13;109730;1250;59737;-69
2022/06/03 10:05:16;;;;;;;4.20;3.60;;;;;;;31.65;36.22;97879.42;109753;1250;71392;-69
2022/06/03 10:07:50;;;;;;;5.40;3.60;;;;;;;31.81;35.72;97881.33;110211;1250;67778;-69
2022/06/03 10:13:09;;;;;;;4.70;3.90;;;;;;;31.29;35.47;97874.67;109929;1250;59640;-69
2022/06/03 10:15:53;;;;;;;4.50;3.70;;;;;;;31.07;35.66;97869.13;109706;1250;59709;-69
2022/06/03 10:18:25;;;;;;;5.60;4.40;;;;;;;31.00;35.82;97864.33;109907;1250;72113;-69
2022/06/03 10:21:06;;;;;;;5.30;4.20;;;;;;;30.56;36.39;97862.83;109952;1250;68633;-69
2022/06/03 10:23:45;;;;;;;5.30;4.30;;;;;;;30.35;37.10;97861.98;109650;1251;69559;-69
2022/06/03 10:26:25;;;;;;;5.00;4.10;;;;;;;30.18;37.32;97863.38;109726;1250;59694;-69
2022/06/03 10:28:56;;;;;;;5.00;4.20;;;;;;;29.94;37.33;97862.35;109572;1250;59634;-70
2022/06/03 10:31:32;;;;;;;6.00;4.40;;;;;;;29.99;35.91;97866.02;109991;1250;71669;-70
2022/06/03 10:34:09;;;;;;;5.40;4.00;;;;;;;29.94;35.58;97863.84;109591;1252;67993;-69
2022/06/03 10:36:42;;;;;;;4.60;3.50;;;;;;;30.07;34.56;97860.52;109710;1251;69472;-70
2022/06/03 10:39:19;;;;;;;5.70;4.40;;;;;;;30.28;35.23;97862.42;109964;1250;59762;-69
2022/06/03 10:41:51;;;;;;;4.50;4.10;;;;;;;30.32;34.28;97862.98;109712;1250;59673;-69
2022/06/03 10:44:23;;;;;;;4.40;3.20;;;;;;;30.45;34.69;97858.69;109799;1250;70783;-71
2022/06/03 10:47:04;;;;;;;7.40;4.60;;;;;;;30.60;33.49;97855.80;109980;1249;67767;-72
2022/06/03 10:49:51;;;;;;;5.70;4.60;;;;;;;30.37;34.79;97850.30;109871;1250;69689;-70
2022/06/03 11:01:21;;;;;;;4.50;3.90;;;;;;;31.66;34.88;97832.55;109623;1250;67893;-68
2022/06/03 11:03:53;;;;;;;5.00;3.50;;;;;;;31.83;33.82;97830.61;109646;1251;68475;-68
2022/06/03 11:06:37;;;;;;;6.10;3.80;;;;;;;31.95;32.19;97829.09;109550;1250;59702;-71
2022/06/03 11:09:08;;;;;;;4.40;4.00;;;;;;;31.80;33.25;97831.39;109761;1250;59749;-69
2022/06/03 11:11:45;;;;;;;3.70;3.30;;;;;;;31.83;32.62;97830.60;109742;1250;72442;-68
2022/06/03 11:14:24;;;;;;;5.40;3.80;;;;;;;31.67;31.90;97827.06;109748;1250;68605;-70
2022/06/03 11:16:53;;;;;;;;;;;;;;;31.58;31.74;97817.39;109858;1250;69459;-69
2022/06/03 11:19:22;;;;;;;4.00;3.60;;;;;;;31.43;31.53;97816.90;109925;1250;59791;-71
2022/06/03 11:22:24;;;;;;;3.30;2.70;;;;;;;31.61;32.26;97810.05;109930;1250;59640;-69
2022/06/03 11:25:22;;;;;;;3.40;3.00;;;;;;;32.12;32.02;97808.34;109959;1250;71584;-70
2022/06/03 11:27:59;;;;;;;3.90;3.00;;;;;;;32.55;30.54;97805.67;109766;1250;68731;-70
2022/06/03 11:30:59;;;;;;;4.60;3.00;;;;;;;32.75;30.03;97810.31;109783;1250;69520;-70
2022/06/03 11:33:50;;;;;;;3.90;2.90;;;;;;;32.59;29.41;97810.36;109666;1253;59705;-69
2022/06/03 11:36:22;;;;;;;4.30;3.00;;;;;;;32.66;29.92;97811.40;109823;1250;59685;-69
2022/06/03 11:39:20;;;;;;;4.20;3.60;;;;;;;32.55;28.16;97806.70;110083;1249;71648;-69
2022/06/03 11:42:01;;;;;;;4.00;2.80;;;;;;;32.30;27.65;97803.23;109372;1253;67990;-71
2022/06/03 11:44:43;;;;;;;4.40;3.90;;;;;;;32.57;28.93;97804.58;109679;1250;69463;-70
2022/06/03 11:47:25;;;;;;;4.50;3.40;;;;;;;32.64;29.99;97801.56;109961;1250;60124;-70
2022/06/03 11:49:54;;;;;;;4.00;3.20;;;;;;;32.51;30.29;97799.27;109648;1253;59709;-70
2022/06/03 11:52:23;;;;;;;6.20;3.70;;;;;;;32.42;30.76;97800.35;109553;1250;70536;-69
2022/06/03 11:54:54;;;;;;;4.00;3.20;;;;;;;32.59;31.22;97800.45;109759;1250;66713;-69
2022/06/03 11:57:23;;;;;;;3.70;3.20;;;;;;;32.52;30.74;97798.20;109887;1250;69446;-69
2022/06/03 12:03:45;;;;;;;4.70;3.20;;;;;;;32.37;30.85;97794.35;109796;1250;59694;-69
2022/06/03 12:06:32;;;;;;;4.70;3.50;;;;;;;32.01;30.14;97793.52;109797;1250;70769;-68
2022/06/03 12:09:17;;;;;;;3.90;3.40;;;;;;;32.02;30.18;97789.54;109570;1250;67815;-70
2022/06/03 12:15:31;;;;;;;3.40;2.80;;;;;;;31.56;30.98;97786.05;109859;1250;59723;-70
2022/06/03 12:18:06;;;;;;;3.30;3.00;;;;;;;31.66;29.19;97785.02;109941;1250;59732;-69
2022/06/03 12:20:44;;;;;;;6.10;4.20;;;;;;;31.51;30.97;97782.52;109720;1250;70781;-70
2022/06/03 12:23:14;;;;;;;3.00;2.70;;;;;;;31.58;29.56;97780.76;109829;1250;68799;-68
2022/06/03 12:25:52;;;;;;;3.10;2.80;;;;;;;31.90;28.45;97772.77;110191;1250;68982;-70
2022/06/03 12:28:31;;;;;;;3.90;3.00;;;;;;;32.02;27.87;97766.61;109998;1250;59702;-70
2022/06/03 12:31:03;;;;;;;3.10;2.80;;;;;;;31.82;28.55;97770.04;109914;1250;59695;-71
2022/06/03 12:34:06;;;;;;;3.10;2.80;;;;;;;31.88;27.80;97765.59;109771;1250;71569;-70
2022/06/03 12:36:51;;;;;;;4.40;3.10;;;;;;;31.95;27.35;97759.28;109684;1250;68600;-66
2022/06/03 12:39:54;;;;;;;4.00;3.00;;;;;;;31.88;28.61;97760.45;109522;1252;69384;-69
2022/06/03 12:42:26;;;;;;;3.40;2.80;;;;;;;31.90;29.19;97757.13;109571;1252;59701;-66
2022/06/03 12:45:03;;;;;;;3.30;2.80;;;;;;;32.15;29.54;97757.79;109579;1252;59702;-66
2022/06/03 12:47:31;;;;;;;3.60;3.20;;;;;;;32.30;28.96;97760.70;109686;1252;71595;-70
2022/06/03 12:50:04;;;;;;;3.30;3.00;;;;;;;32.29;29.66;97756.11;109693;1253;68114;-69
2022/06/03 12:52:36;;;;;;;3.90;3.10;;;;;;;32.27;29.75;97751.83;109611;1253;67574;-68
2022/06/03 12:55:14;;;;;;;3.60;2.80;;;;;;;32.28;30.01;97743.53;109516;1252;59824;-69
2022/06/03 12:57:57;;;;;;;4.10;3.20;;;;;;;32.43;30.46;97743.17;109606;1253;59749;-69
2022/06/03 13:00:34;;;;;;;4.10;3.00;;;;;;;32.54;30.10;97744.80;109605;1252;70786;-70
2022/06/03 13:03:07;;;;;;;4.10;3.20;;;;;;;32.66;28.75;97738.77;109569;1253;68747;-69
2022/06/03 13:05:43;;;;;;;3.70;2.70;;;;;;;32.78;28.82;97738.05;109519;1253;68885;-70
2022/06/03 13:08:32;;;;;;;3.70;3.30;;;;;;;32.78;28.31;97734.68;109579;1252;59692;-67
2022/06/03 13:11:20;;;;;;;3.30;2.80;;;;;;;32.60;28.17;97732.06;109741;1253;59638;-67
2022/06/03 13:14:15;;;;;;;3.90;3.20;;;;;;;32.55;28.32;97733.65;109535;1253;70766;-69
2022/06/03 13:16:47;;;;;;;3.40;3.00;;;;;;;32.67;28.24;97732.45;109585;1252;68059;-68
2022/06/03 13:19:17;;;;;;;4.10;2.90;;;;;;;32.69;27.38;97737.23;109526;1252;69431;-69